createdAt,value
2023-02-18T00:01:26.603Z,62.02
2023-02-18T00:04:00.548Z,62.46
2023-02-18T00:06:37.067Z,63.38
2023-02-18T00:09:10.030Z,62.72
2023-02-18T00:11:42.936Z,63.38
2023-02-18T00:14:18.046Z,63.27
2023-02-18T00:16:50.884Z,63.17
2023-02-18T00:19:24.107Z,63.60
2023-02-18T00:21:58.299Z,63.01
2023-02-18T00:24:31.201Z,63.69
2023-02-18T00:27:04.101Z,63.18
2023-02-18T00:29:37.053Z,63.39
2023-02-18T00:32:10.007Z,63.29
2023-02-18T00:34:42.946Z,63.25
2023-02-18T00:37:17.206Z,63.55
2023-02-18T00:39:50.142Z,63.22
2023-02-18T00:42:23.100Z,63.40
2023-02-18T00:44:56.174Z,63.23
2023-02-18T00:47:29.047Z,63.11
2023-02-18T00:50:01.941Z,63.26
2023-02-18T00:52:36.455Z,63.56
2023-02-18T00:55:09.656Z,63.11
2023-02-18T00:57:42.527Z,63.30
2023-02-18T01:00:16.697Z,63.32
2023-02-18T01:02:53.996Z,63.36
2023-02-18T01:05:26.988Z,63.04
2023-02-18T01:08:01.314Z,63.20
2023-02-18T01:10:36.512Z,63.26
2023-02-18T01:13:09.996Z,63.25
2023-02-18T01:15:43.826Z,63.23
2023-02-18T01:18:17.006Z,62.56
2023-02-18T01:20:50.168Z,62.29
2023-02-18T01:23:24.742Z,62.43
2023-02-18T01:25:59.437Z,62.62
2023-02-18T01:28:34.145Z,62.27
2023-02-18T01:31:08.809Z,62.33
2023-02-18T01:33:41.813Z,62.12
2023-02-18T01:36:15.079Z,62.51
2023-02-18T01:38:49.419Z,62.55
2023-02-18T01:41:22.758Z,62.66
2023-02-18T01:44:14.491Z,62.98
2023-02-18T01:46:47.615Z,63.00
2023-02-18T01:49:23.976Z,63.39
2023-02-18T01:52:00.180Z,63.56
2023-02-18T01:54:37.085Z,64.07
2023-02-18T01:57:12.993Z,63.81
2023-02-18T01:59:49.377Z,64.46
2023-02-18T02:02:24.012Z,64.70
2023-02-18T02:04:57.606Z,64.91
2023-02-18T02:07:31.231Z,64.76
2023-02-18T02:10:06.505Z,65.18
2023-02-18T02:12:50.824Z,65.17
2023-02-18T02:15:37.098Z,65.59
2023-02-18T02:18:23.324Z,65.21
2023-02-18T02:21:26.301Z,64.88
2023-02-18T02:24:22.987Z,65.34
2023-02-18T02:27:16.345Z,65.28
2023-02-18T02:30:13.681Z,65.02
2023-02-18T02:33:31.106Z,64.84
2023-02-18T02:36:14.058Z,65.15
2023-02-18T02:38:56.840Z,64.91
2023-02-18T02:41:44.373Z,64.59
2023-02-18T02:44:22.651Z,64.52
2023-02-18T02:47:02.696Z,64.59
2023-02-18T02:49:40.598Z,64.49
2023-02-18T02:52:22.563Z,64.36
2023-02-18T02:54:55.415Z,64.17
2023-02-18T02:57:52.611Z,64.31
2023-02-18T03:00:40.124Z,63.94
2023-02-18T03:03:40.743Z,63.87
2023-02-18T03:06:38.622Z,63.74
2023-02-18T03:09:20.882Z,63.58
2023-02-18T03:12:01.110Z,63.65
2023-02-18T03:14:44.814Z,63.52
2023-02-18T03:17:24.414Z,63.41
2023-02-18T03:20:04.141Z,63.52
2023-02-18T03:22:42.582Z,63.59
2023-02-18T03:25:18.119Z,63.67
2023-02-18T03:27:54.451Z,63.57
2023-02-18T03:30:31.667Z,63.29
2023-02-18T03:33:08.580Z,63.07
2023-02-18T03:35:43.357Z,63.26
2023-02-18T03:38:21.386Z,63.55
2023-02-18T03:40:55.987Z,63.24
2023-02-18T03:43:30.340Z,63.26
2023-02-18T03:46:04.731Z,63.09
2023-02-18T03:48:37.614Z,63.00
2023-02-18T03:51:10.656Z,63.37
2023-02-18T03:53:43.546Z,63.68
2023-02-18T03:56:18.194Z,63.71
2023-02-18T03:58:51.148Z,63.32
2023-02-18T04:01:24.301Z,63.84
2023-02-18T04:03:57.530Z,63.45
2023-02-18T04:06:30.858Z,63.51
2023-02-18T04:09:09.357Z,63.28
2023-02-18T04:11:43.734Z,63.23
2023-02-18T04:14:16.691Z,63.22
2023-02-18T04:16:49.621Z,63.21
2023-02-18T04:19:22.550Z,63.05
2023-02-18T04:21:55.433Z,63.29
2023-02-18T04:24:28.367Z,63.56
2023-02-18T04:27:02.714Z,63.30
2023-02-18T04:29:35.665Z,63.01
2023-02-18T04:32:08.678Z,62.73
2023-02-18T04:34:41.609Z,62.47
2023-02-18T04:37:14.597Z,62.38
2023-02-18T04:39:47.507Z,62.47
2023-02-18T04:42:21.808Z,61.91
2023-02-18T04:44:55.004Z,62.32
2023-02-18T04:47:28.083Z,62.52
2023-02-18T04:50:01.062Z,62.11
2023-02-18T04:52:34.098Z,62.00
2023-02-18T04:55:07.902Z,62.27
2023-02-18T04:57:42.387Z,62.05
2023-02-18T05:00:17.667Z,62.37
2023-02-18T05:02:50.591Z,62.46
2023-02-18T05:05:23.678Z,62.33
2023-02-18T05:07:56.602Z,62.93
2023-02-18T05:10:29.475Z,62.61
2023-02-18T05:13:03.962Z,62.70
2023-02-18T05:15:36.921Z,62.90
2023-02-18T05:18:10.221Z,63.18
2023-02-18T05:20:43.065Z,63.59
2023-02-18T05:23:16.041Z,63.83
2023-02-18T05:25:49.031Z,63.96
2023-02-18T05:28:23.512Z,63.72
2023-02-18T05:30:56.400Z,63.81
2023-02-18T05:33:29.318Z,63.22
2023-02-18T05:36:02.257Z,63.80
2023-02-18T05:38:35.136Z,63.21
2023-02-18T05:41:08.048Z,63.36
2023-02-18T05:43:56.196Z,63.31
2023-02-18T05:46:29.099Z,63.16
2023-02-18T05:49:02.197Z,63.15
2023-02-18T05:51:35.165Z,62.77
2023-02-18T05:54:08.235Z,63.04
2023-02-18T05:56:41.176Z,62.69
2023-02-18T05:59:16.037Z,63.11
2023-02-18T06:01:49.277Z,62.90
2023-02-18T06:04:22.302Z,62.98
2023-02-18T06:06:55.222Z,62.72
2023-02-18T06:09:28.139Z,62.36
2023-02-18T06:12:01.077Z,62.61
2023-02-18T06:14:35.595Z,62.56
2023-02-18T06:17:08.587Z,62.65
2023-02-18T06:19:41.783Z,62.24
2023-02-18T06:22:14.735Z,62.58
2023-02-18T06:24:47.871Z,62.17
2023-02-18T06:27:20.840Z,62.41
2023-02-18T06:29:55.157Z,62.22
2023-02-18T06:32:28.064Z,62.00
2023-02-18T06:35:00.919Z,62.39
2023-02-18T06:37:34.481Z,62.10
2023-02-18T06:40:09.131Z,61.89
2023-02-18T06:42:42.097Z,61.85
2023-02-18T06:45:16.608Z,61.89
2023-02-18T06:47:49.532Z,61.86
2023-02-18T06:50:22.451Z,61.76
2023-02-18T06:52:55.328Z,61.92
2023-02-18T06:55:28.263Z,61.80
2023-02-18T06:58:01.202Z,61.85
2023-02-18T07:00:35.836Z,61.90
2023-02-18T07:03:09.118Z,61.89
2023-02-18T07:05:42.095Z,61.66
2023-02-18T07:08:14.972Z,61.62
2023-02-18T07:10:48.214Z,61.93
2023-02-18T07:13:21.170Z,61.68
2023-02-18T07:15:55.507Z,61.70
2023-02-18T07:18:28.455Z,61.46
2023-02-18T07:21:01.329Z,61.42
2023-02-18T07:23:34.358Z,61.37
2023-02-18T07:26:09.087Z,61.40
2023-02-18T07:28:43.474Z,61.24
2023-02-18T07:31:18.322Z,61.27
2023-02-18T07:33:51.266Z,61.05
2023-02-18T07:36:24.236Z,60.86
2023-02-18T07:38:57.211Z,61.08
2023-02-18T07:41:30.129Z,60.94
2023-02-18T07:44:03.011Z,60.96
2023-02-18T07:46:40.854Z,60.75
2023-02-18T07:49:13.834Z,60.76
2023-02-18T07:51:48.660Z,60.61
2023-02-18T07:54:21.513Z,60.63
2023-02-18T07:56:55.876Z,60.44
2023-02-18T07:59:28.917Z,60.29
2023-02-18T08:02:03.271Z,60.26
2023-02-18T08:04:36.176Z,60.42
2023-02-18T08:07:09.132Z,60.40
2023-02-18T08:09:42.229Z,60.81
2023-02-18T08:12:15.427Z,60.41
2023-02-18T08:14:48.369Z,60.29
2023-02-18T08:17:22.665Z,60.13
2023-02-18T08:19:55.616Z,59.98
2023-02-18T08:22:28.600Z,59.61
2023-02-18T08:25:01.600Z,59.69
2023-02-18T08:27:34.633Z,59.55
2023-02-18T08:30:09.154Z,59.25
2023-02-18T08:32:43.424Z,59.16
2023-02-18T08:35:16.438Z,58.77
2023-02-18T08:37:52.938Z,58.65
2023-02-18T08:40:27.100Z,58.31
2023-02-18T08:43:00.382Z,58.54
2023-02-18T08:45:35.190Z,58.20
2023-02-18T08:48:13.525Z,58.19
2023-02-18T08:50:53.167Z,58.22
2023-02-18T08:53:26.157Z,58.12
2023-02-18T08:55:59.026Z,57.93
2023-02-18T08:58:31.889Z,57.64
2023-02-18T09:01:07.062Z,57.71
2023-02-18T09:03:42.253Z,57.21
2023-02-18T09:06:15.160Z,57.58
2023-02-18T09:08:48.086Z,57.25
2023-02-18T09:11:21.452Z,57.21
2023-02-18T09:13:54.296Z,56.73
2023-02-18T09:16:28.300Z,57.36
2023-02-18T09:19:02.866Z,56.94
2023-02-18T09:21:35.821Z,57.02
2023-02-18T09:24:09.798Z,56.51
2023-02-18T09:26:42.827Z,56.51
2023-02-18T09:29:16.309Z,56.36
2023-02-18T09:31:49.288Z,56.01
2023-02-18T09:34:23.972Z,56.37
2023-02-18T09:36:56.857Z,55.96
2023-02-18T09:39:30.246Z,56.26
2023-02-18T09:42:05.310Z,56.20
2023-02-18T09:44:42.132Z,55.89
2023-02-18T09:47:19.176Z,55.67
2023-02-18T09:49:58.172Z,55.94
2023-02-18T09:52:33.428Z,55.74
2023-02-18T09:55:19.608Z,56.00
2023-02-18T09:57:54.697Z,55.94
2023-02-18T10:00:33.452Z,55.45
2023-02-18T10:03:12.949Z,55.62
2023-02-18T10:05:57.601Z,54.90
2023-02-18T10:08:34.938Z,55.15
2023-02-18T10:11:16.655Z,55.28
2023-02-18T10:13:49.386Z,55.31
2023-02-18T10:16:24.894Z,54.80
2023-02-18T10:19:00.988Z,54.67
2023-02-18T10:21:36.497Z,54.22
2023-02-18T10:24:23.502Z,53.66
2023-02-18T10:26:57.386Z,54.34
2023-02-18T10:29:32.284Z,53.96
2023-02-18T10:32:14.420Z,53.61
2023-02-18T10:34:50.712Z,53.49
2023-02-18T10:37:52.726Z,53.84
2023-02-18T10:40:33.136Z,53.49
2023-02-18T10:43:15.549Z,53.19
2023-02-18T10:45:56.770Z,52.61
2023-02-18T10:48:50.887Z,53.34
2023-02-18T10:51:27.023Z,52.71
2023-02-18T10:54:02.151Z,52.45
2023-02-18T10:56:42.980Z,52.20
2023-02-18T10:59:20.946Z,51.87
2023-02-18T11:01:59.670Z,51.59
2023-02-18T11:04:38.142Z,51.27
2023-02-18T11:07:16.742Z,51.39
2023-02-18T11:09:53.748Z,50.97
2023-02-18T11:12:31.339Z,51.03
2023-02-18T11:15:18.656Z,50.75
2023-02-18T11:17:54.764Z,51.01
2023-02-18T11:20:31.591Z,51.28
2023-02-18T11:23:18.933Z,51.00
2023-02-18T11:25:59.746Z,51.35
2023-02-18T11:28:43.347Z,51.23
2023-02-18T11:31:23.419Z,51.09
2023-02-18T11:33:59.991Z,51.57
2023-02-18T11:36:36.058Z,51.51
2023-02-18T11:39:20.030Z,51.39
2023-02-18T11:41:59.751Z,51.60
2023-02-18T11:44:35.991Z,51.79
2023-02-18T11:47:23.276Z,51.84
2023-02-18T11:50:15.141Z,51.71
2023-02-18T11:52:50.035Z,51.46
2023-02-18T11:55:25.105Z,51.43
2023-02-18T11:58:01.154Z,51.20
2023-02-18T12:00:41.438Z,51.11
2023-02-18T12:03:24.479Z,51.22
2023-02-18T12:05:59.738Z,51.71
2023-02-18T12:08:39.068Z,51.26
2023-02-18T12:11:18.108Z,51.19
2023-02-18T12:13:56.603Z,50.85
2023-02-18T12:16:38.777Z,51.27
2023-02-18T12:19:34.814Z,50.65
2023-02-18T12:22:19.669Z,50.59
2023-02-18T12:25:04.945Z,50.62
2023-02-18T12:27:44.404Z,50.51
2023-02-18T12:30:38.637Z,50.91
2023-02-18T12:33:20.638Z,50.91
2023-02-18T12:36:05.622Z,50.45
2023-02-18T12:38:56.551Z,50.54
2023-02-18T12:41:59.716Z,50.82
2023-02-18T12:44:45.843Z,50.50
2023-02-18T12:47:56.884Z,50.41
2023-02-18T12:50:55.401Z,50.50
2023-02-18T12:53:46.725Z,50.76
2023-02-18T12:56:47.460Z,50.50
2023-02-18T12:59:41.874Z,49.96
2023-02-18T13:02:40.521Z,49.86
2023-02-18T13:05:25.970Z,49.81
2023-02-18T13:08:13.547Z,49.89
2023-02-18T13:10:57.700Z,49.69
2023-02-18T13:13:36.078Z,49.19
2023-02-18T13:16:13.012Z,48.86
2023-02-18T13:18:51.609Z,49.13
2023-02-18T13:21:26.855Z,49.31
2023-02-18T13:24:02.825Z,49.06
2023-02-18T13:26:36.441Z,49.29
2023-02-18T13:29:23.616Z,48.55
2023-02-18T13:32:10.801Z,48.79
2023-02-18T13:34:49.674Z,48.88
2023-02-18T13:37:34.557Z,49.09
2023-02-18T13:40:15.703Z,49.12
2023-02-18T13:42:52.804Z,49.36
2023-02-18T13:45:29.803Z,49.31
2023-02-18T13:48:02.960Z,49.36
2023-02-18T13:50:44.347Z,49.14
2023-02-18T13:53:25.560Z,49.31
2023-02-18T13:56:03.300Z,49.29
2023-02-18T13:58:41.947Z,49.05
2023-02-18T14:01:22.561Z,49.21
2023-02-18T14:03:59.463Z,49.01
2023-02-18T14:06:36.421Z,48.83
2023-02-18T14:09:37.851Z,49.00
2023-02-18T14:12:25.843Z,48.78
2023-02-18T14:15:00.118Z,48.92
2023-02-18T14:17:48.597Z,49.01
2023-02-18T14:20:34.461Z,48.85
2023-02-18T14:23:14.837Z,48.84
2023-02-18T14:25:57.257Z,49.02
2023-02-18T14:28:41.362Z,49.01
2023-02-18T14:31:32.447Z,49.02
2023-02-18T14:34:39.041Z,48.87
2023-02-18T14:37:27.029Z,49.01
2023-02-18T14:40:13.549Z,49.11
2023-02-18T14:42:56.035Z,49.00
2023-02-18T14:45:41.380Z,49.27
2023-02-18T14:48:35.787Z,49.18
2023-02-18T14:51:09.729Z,49.19
2023-02-18T14:53:45.735Z,49.12
2023-02-18T14:56:21.075Z,49.36
2023-02-18T14:59:00.458Z,49.08
2023-02-18T15:01:35.460Z,49.56
2023-02-18T15:04:08.465Z,49.65
2023-02-18T15:06:41.404Z,49.59
2023-02-18T15:09:16.513Z,49.65
2023-02-18T15:11:53.653Z,49.79
2023-02-18T15:14:32.486Z,49.53
2023-02-18T15:17:07.531Z,49.95
2023-02-18T15:19:44.081Z,49.94
2023-02-18T15:22:20.172Z,50.34
2023-02-18T15:24:55.519Z,50.08
2023-02-18T15:27:30.871Z,50.27
2023-02-18T15:30:19.527Z,50.13
2023-02-18T15:32:53.800Z,50.41
2023-02-18T15:35:31.523Z,50.54
2023-02-18T15:38:05.020Z,50.72
2023-02-18T15:40:40.501Z,50.95
2023-02-18T15:43:18.075Z,51.03
2023-02-18T15:45:56.058Z,51.07
2023-02-18T15:48:36.250Z,50.96
2023-02-18T15:51:17.637Z,51.44
2023-02-18T15:53:55.099Z,51.11
2023-02-18T15:56:37.517Z,51.36
2023-02-18T15:59:17.236Z,51.23
2023-02-18T16:01:53.525Z,51.58
2023-02-18T16:04:32.972Z,51.45
2023-02-18T16:07:22.353Z,51.33
2023-02-18T16:10:17.666Z,51.66
2023-02-18T16:12:54.064Z,51.73
2023-02-18T16:15:30.725Z,52.08
2023-02-18T16:18:07.082Z,51.94
2023-02-18T16:20:41.968Z,51.93
2023-02-18T16:23:16.159Z,52.23
2023-02-18T16:25:50.714Z,52.05
2023-02-18T16:28:27.866Z,52.23
2023-02-18T16:31:00.873Z,52.12
2023-02-18T16:33:36.260Z,52.35
2023-02-18T16:36:15.302Z,52.64
2023-02-18T16:38:48.183Z,52.85
2023-02-18T16:41:21.070Z,52.94
2023-02-18T16:43:54.050Z,53.09
2023-02-18T16:46:27.106Z,53.28
2023-02-18T16:49:01.450Z,53.46
2023-02-18T16:51:36.254Z,53.47
2023-02-18T16:54:11.816Z,53.42
2023-02-18T16:56:44.704Z,53.79
2023-02-18T16:59:17.603Z,53.86
2023-02-18T17:01:50.538Z,54.01
2023-02-18T17:04:24.900Z,54.29
2023-02-18T17:06:58.284Z,54.32
2023-02-18T17:09:31.164Z,54.63
2023-02-18T17:12:05.103Z,54.62
2023-02-18T17:14:38.066Z,54.99
2023-02-18T17:17:13.965Z,55.30
2023-02-18T17:19:48.282Z,55.12
2023-02-18T17:22:21.191Z,55.17
2023-02-18T17:24:54.064Z,55.07
2023-02-18T17:27:26.923Z,55.48
2023-02-18T17:29:59.841Z,55.52
2023-02-18T17:32:32.864Z,55.86
2023-02-18T17:35:07.874Z,55.75
2023-02-18T17:37:40.796Z,55.91
2023-02-18T17:40:18.432Z,56.00
2023-02-18T17:42:51.569Z,56.29
2023-02-18T17:45:29.833Z,56.60
2023-02-18T17:48:03.934Z,56.55
2023-02-18T17:50:38.712Z,56.40
2023-02-18T17:53:11.838Z,56.73
2023-02-18T17:55:46.849Z,56.90
2023-02-18T17:58:19.843Z,56.93
2023-02-18T18:00:55.305Z,57.07
2023-02-18T18:03:28.193Z,57.08
2023-02-18T18:06:04.574Z,57.08
2023-02-18T18:08:37.430Z,57.59
2023-02-18T18:11:14.300Z,57.64
2023-02-18T18:13:47.354Z,57.63
2023-02-18T18:16:21.108Z,57.21
2023-02-18T18:18:54.134Z,57.56
2023-02-18T18:21:32.385Z,58.08
2023-02-18T18:24:05.732Z,57.93
2023-02-18T18:26:38.645Z,57.69
2023-02-18T18:29:11.562Z,57.87
2023-02-18T18:31:44.964Z,57.58
2023-02-18T18:34:17.884Z,58.01
2023-02-18T18:36:52.315Z,57.86
2023-02-18T18:39:25.217Z,58.04
2023-02-18T18:42:00.086Z,58.55
2023-02-18T18:44:32.954Z,58.42
2023-02-18T18:47:05.924Z,58.77
2023-02-18T18:49:39.331Z,58.58
2023-02-18T18:52:17.403Z,58.88
2023-02-18T18:54:50.270Z,59.09
2023-02-18T18:57:23.205Z,59.20
2023-02-18T18:59:56.447Z,58.56
2023-02-18T19:02:29.499Z,58.30
2023-02-18T19:05:03.778Z,58.93
2023-02-18T19:07:38.130Z,58.88
2023-02-18T19:10:11.130Z,59.15
2023-02-18T19:12:44.240Z,59.17
2023-02-18T19:15:20.266Z,59.05
2023-02-18T19:17:54.741Z,59.92
2023-02-18T19:20:30.926Z,60.02
2023-02-18T19:23:05.434Z,59.73
2023-02-18T19:25:38.975Z,60.21
2023-02-18T19:28:14.373Z,60.20
2023-02-18T19:30:47.445Z,60.08
2023-02-18T19:33:20.835Z,60.20
2023-02-18T19:35:53.736Z,60.20
2023-02-18T19:38:28.091Z,60.10
2023-02-18T19:41:08.091Z,60.61
2023-02-18T19:43:41.499Z,60.54
2023-02-18T19:46:16.603Z,60.47
2023-02-18T19:48:51.081Z,60.98
2023-02-18T19:51:24.903Z,61.11
2023-02-18T19:53:59.242Z,60.82
2023-02-18T19:56:32.183Z,61.24
2023-02-18T19:59:05.161Z,61.23
2023-02-18T20:01:38.234Z,61.30
2023-02-18T20:04:11.307Z,61.43
2023-02-18T20:06:44.219Z,61.05
2023-02-18T20:09:18.513Z,61.29
2023-02-18T20:11:52.830Z,61.48
2023-02-18T20:14:27.205Z,60.57
2023-02-18T20:17:00.251Z,61.21
2023-02-18T20:19:34.897Z,61.33
2023-02-18T20:22:10.224Z,61.07
2023-02-18T20:24:44.728Z,61.31
2023-02-18T20:27:17.702Z,61.44
2023-02-18T20:29:51.533Z,61.52
2023-02-18T20:32:24.491Z,61.67
2023-02-18T20:34:57.880Z,61.78
2023-02-18T20:37:30.914Z,61.72
2023-02-18T20:40:05.801Z,61.84
2023-02-18T20:42:38.875Z,61.65
2023-02-18T20:45:12.028Z,62.03
2023-02-18T20:47:44.929Z,62.06
2023-02-18T20:50:17.852Z,61.83
2023-02-18T20:52:50.700Z,61.50
2023-02-18T20:55:25.183Z,62.37
2023-02-18T20:57:58.071Z,61.65
2023-02-18T21:00:31.438Z,61.74
2023-02-18T21:03:04.676Z,62.09
2023-02-18T21:05:37.992Z,61.79
2023-02-18T21:08:10.865Z,62.01
2023-02-18T21:10:45.237Z,62.32
2023-02-18T21:13:18.193Z,62.08
2023-02-18T21:15:51.858Z,61.97
2023-02-18T21:18:24.760Z,61.84
2023-02-18T21:20:57.717Z,61.75
2023-02-18T21:23:30.632Z,62.59
2023-02-18T21:26:06.496Z,62.20
2023-02-18T21:28:39.792Z,62.37
2023-02-18T21:31:17.743Z,62.42
2023-02-18T21:33:50.899Z,62.60
2023-02-18T21:36:24.230Z,62.16
2023-02-18T21:38:58.961Z,61.65
2023-02-18T21:41:35.277Z,62.55
2023-02-18T21:44:08.632Z,62.46
2023-02-18T21:46:41.939Z,62.31
2023-02-18T21:49:15.694Z,62.51
2023-02-18T21:52:00.909Z,62.35
2023-02-18T21:54:36.116Z,62.63
2023-02-18T21:57:12.739Z,62.37
2023-02-18T21:59:46.355Z,62.27
2023-02-18T22:02:21.456Z,62.41
2023-02-18T22:04:54.700Z,63.00
2023-02-18T22:07:28.842Z,62.20
2023-02-18T22:10:02.102Z,62.74
2023-02-18T22:12:36.631Z,62.71
2023-02-18T22:15:10.160Z,62.48
2023-02-18T22:17:43.051Z,61.98
2023-02-18T22:20:15.997Z,62.86
2023-02-18T22:22:49.038Z,62.24
2023-02-18T22:25:21.937Z,62.68
2023-02-18T22:27:56.268Z,62.96
2023-02-18T22:30:29.249Z,62.49
2023-02-18T22:33:02.139Z,62.42
2023-02-18T22:35:35.092Z,62.78
2023-02-18T22:38:08.046Z,62.92
2023-02-18T22:40:40.902Z,62.77
2023-02-18T22:43:15.222Z,63.00
2023-02-18T22:45:48.105Z,62.84
2023-02-18T22:48:21.189Z,62.88
2023-02-18T22:50:54.190Z,63.09
2023-02-18T22:53:27.182Z,62.58
2023-02-18T22:56:01.546Z,62.94
2023-02-18T22:58:37.498Z,62.92
2023-02-18T23:01:20.418Z,63.38
2023-02-18T23:03:54.638Z,63.37
2023-02-18T23:06:27.663Z,62.90
2023-02-18T23:09:00.624Z,63.40
2023-02-18T23:11:34.194Z,63.22
2023-02-18T23:14:21.838Z,63.63
2023-02-18T23:17:17.846Z,63.82
2023-02-18T23:19:52.815Z,63.19
2023-02-18T23:22:30.407Z,63.55
2023-02-18T23:25:03.732Z,63.27
2023-02-18T23:27:36.648Z,63.38
2023-02-18T23:30:12.595Z,63.42
2023-02-18T23:32:45.538Z,63.76
2023-02-18T23:35:18.723Z,63.27
2023-02-18T23:38:06.549Z,63.16
2023-02-18T23:40:39.497Z,62.79
2023-02-18T23:43:12.432Z,63.51
2023-02-18T23:45:46.747Z,63.77
2023-02-18T23:48:19.585Z,63.34
2023-02-18T23:50:59.840Z,63.38
2023-02-18T23:53:33.888Z,63.69
2023-02-18T23:56:10.632Z,63.39
2023-02-18T23:58:45.810Z,63.18
